createdAt,value
2018-03-26T00:07:52.763Z,28.87
2018-03-26T00:17:55.341Z,27.70
2018-03-26T00:27:57.879Z,29.63
2018-03-26T00:38:00.382Z,29.70
2018-03-26T00:48:02.886Z,31.17
2018-03-26T00:58:06.172Z,29.03
2018-03-26T01:08:08.666Z,29.90
2018-03-26T01:18:11.941Z,29.67
2018-03-26T01:28:14.446Z,31.13
2018-03-26T01:38:16.967Z,30.20
2018-03-26T01:48:20.237Z,30.03
2018-03-26T01:58:22.754Z,32.00
2018-03-26T02:08:25.250Z,31.00
2018-03-26T02:18:27.751Z,31.47
2018-03-26T02:28:30.242Z,33.33
2018-03-26T02:38:32.744Z,34.70
2018-03-26T02:48:36.053Z,35.70
2018-03-26T02:58:38.550Z,36.77
2018-03-26T03:08:41.042Z,37.17
2018-03-26T03:18:44.303Z,38.23
2018-03-26T03:28:46.833Z,36.57
2018-03-26T03:38:49.326Z,37.57
2018-03-26T03:48:51.817Z,38.20
2018-03-26T03:58:54.314Z,37.83
2018-03-26T04:08:56.813Z,42.77
2018-03-26T04:19:00.080Z,37.77
2018-03-26T04:29:02.577Z,39.53
2018-03-26T04:39:05.144Z,39.37
2018-03-26T04:49:07.635Z,39.07
2018-03-26T04:59:13.042Z,40.77
2018-03-26T05:09:16.305Z,39.77
2018-03-26T05:19:18.801Z,36.77
2018-03-26T05:29:21.353Z,39.53
2018-03-26T05:39:24.619Z,39.43
2018-03-26T05:49:27.101Z,38.67
2018-03-26T05:59:29.591Z,38.20
2018-03-26T06:09:32.080Z,37.33
2018-03-26T06:19:35.350Z,37.73
2018-03-26T06:29:37.850Z,37.03
2018-03-26T06:39:41.216Z,38.73
2018-03-26T06:49:44.488Z,34.80
2018-03-26T06:59:46.973Z,32.90
2018-03-26T07:09:49.473Z,36.07
2018-03-26T07:19:51.957Z,37.97
2018-03-26T07:29:54.494Z,38.20
2018-03-26T07:39:56.998Z,37.87
2018-03-26T07:49:59.649Z,37.03
2018-03-26T08:00:02.137Z,48.90
2018-03-26T08:10:04.634Z,39.13
2018-03-26T08:20:07.121Z,38.13
2018-03-26T08:30:09.621Z,35.33
2018-03-26T08:40:12.111Z,33.43
2018-03-26T08:50:14.697Z,34.60
2018-03-26T09:00:17.137Z,31.27
2018-03-26T09:10:19.625Z,24.90
2018-03-26T09:20:22.118Z,21.70
2018-03-26T09:30:24.613Z,18.73
2018-03-26T09:40:27.564Z,22.30
2018-03-26T09:50:30.065Z,17.90
2018-03-26T10:00:38.297Z,16.63
2018-03-26T10:10:40.788Z,19.93
2018-03-26T10:20:43.282Z,15.27
2018-03-26T10:30:45.788Z,16.97
2018-03-26T10:40:48.273Z,12.03
2018-03-26T10:50:50.766Z,12.37
2018-03-26T11:00:53.266Z,10.40
2018-03-26T11:10:55.762Z,6.43
2018-03-26T11:20:58.257Z,8.60
2018-03-26T11:31:00.741Z,7.63
2018-03-26T11:41:04.001Z,7.77
2018-03-26T11:51:07.257Z,7.00
2018-03-26T12:01:09.758Z,6.20
2018-03-26T12:11:12.266Z,6.80
2018-03-26T12:21:14.757Z,5.37
2018-03-26T12:31:17.253Z,4.80
2018-03-26T12:41:20.521Z,3.10
2018-03-26T12:51:34.958Z,2.27
2018-03-26T13:01:49.265Z,2.73
2018-03-26T13:11:51.753Z,2.20
2018-03-26T13:21:54.250Z,2.60
2018-03-26T13:31:57.499Z,2.33
2018-03-26T13:42:00.753Z,2.90
2018-03-26T13:52:03.251Z,3.57
2018-03-26T14:02:05.735Z,2.70
2018-03-26T14:12:20.006Z,3.00
2018-03-26T14:22:23.262Z,3.00
2018-03-26T14:32:25.745Z,3.17
2018-03-26T14:42:28.225Z,3.53
2018-03-26T14:52:30.708Z,2.87
2018-03-26T15:02:33.197Z,3.13
2018-03-26T15:12:35.677Z,3.60
2018-03-26T15:22:38.933Z,3.60
2018-03-26T15:32:41.416Z,3.20
2018-03-26T15:42:43.898Z,3.37
2018-03-26T15:52:46.455Z,4.80
2018-03-26T16:02:54.564Z,4.00
2018-03-26T16:12:57.809Z,4.27
2018-03-26T16:23:00.301Z,4.60
2018-03-26T16:33:02.802Z,5.20
2018-03-26T16:43:05.292Z,5.07
2018-03-26T16:53:07.772Z,5.80
2018-03-26T17:03:10.265Z,4.97
2018-03-26T17:13:12.755Z,4.47
2018-03-26T17:23:15.242Z,5.47
2018-03-26T17:33:17.738Z,6.40
2018-03-26T17:43:20.220Z,7.80
2018-03-26T17:53:22.710Z,7.30
2018-03-26T18:03:25.218Z,8.40
2018-03-26T18:13:28.454Z,7.27
2018-03-26T18:23:30.941Z,5.53
2018-03-26T18:33:33.430Z,4.73
2018-03-26T18:43:35.985Z,5.57
2018-03-26T18:53:38.470Z,5.37
2018-03-26T19:03:40.961Z,6.40
2018-03-26T19:13:44.217Z,5.50
2018-03-26T19:23:47.233Z,5.50
2018-03-26T19:33:49.718Z,5.70
2018-03-26T19:43:53.057Z,7.63
2018-03-26T19:53:55.542Z,7.00
2018-03-26T20:03:58.033Z,9.03
2018-03-26T20:14:00.526Z,9.43
2018-03-26T20:24:03.781Z,11.13
2018-03-26T20:34:07.044Z,11.07
2018-03-26T20:44:09.534Z,12.37
2018-03-26T20:54:12.029Z,13.60
2018-03-26T21:04:14.520Z,13.60
2018-03-26T21:14:17.772Z,12.70
2018-03-26T21:24:20.277Z,14.30
2018-03-26T21:34:22.771Z,11.97
2018-03-26T21:44:25.266Z,14.10
2018-03-26T21:54:27.757Z,13.13
2018-03-26T22:04:31.023Z,14.27
2018-03-26T22:14:34.280Z,15.10
2018-03-26T22:24:36.769Z,14.03
2018-03-26T22:34:40.034Z,15.43
2018-03-26T22:44:43.357Z,15.30
2018-03-26T22:54:45.788Z,16.63
2018-03-26T23:04:49.065Z,14.47
2018-03-26T23:14:51.568Z,16.20
2018-03-26T23:24:54.828Z,16.20
2018-03-26T23:34:57.312Z,17.40
2018-03-26T23:44:59.806Z,17.70
2018-03-26T23:55:02.302Z,15.50
